Airfield :
LOGIN :

Register | Disclaimer

   EN    FR    IT 

 










Legend :    VFR   Marginal VFR   IFR   Intensive IFR   Very Intensive IFR
Visi :
Ceiling :
>= 8 km
>= 3000ft
5 to 8 km
1000 to 3000 ft
1500m to 5 km
500 to 1000 ft
800 to 1500m
200 to 500 ft
< 800m
< 200 ft
Symbols :   Thunderstorms  Fog  Heavy snow  Heavy precipitations  Wind > 20 kt
SIGMETs :     Misc.  Thunderstorms  Icing  Turbulence  Mountain Waves  Volcanic Ashes







- Airport Elevation : 7 ft
- IATA code : POW


LJPZ - Portoroz

CURRENT METAR :
  • 301630Z 21008KT CAVOK 19/07 Q1012

EXPIRED METARs :
  • 301600Z 20008KT 170V240 CAVOK 19/05 Q1012
  • 301530Z 20009KT 170V230 CAVOK 20/06 Q1012
  • 301500Z 20010KT 160V240 CAVOK 20/04 Q1012
  • 301430Z 22001KT CAVOK 21/04 Q1012
  • 301400Z 16003KT 080V240 CAVOK 21/03 Q1012

TAF AMD TAF LJPZ
Valid from the 30 at 15:00 until the 01 at 00:00 UTC


301545Z 3015/3024 20007KT CAVOK
BECMG 3018/3019 12005KT
No reported NOTAMs for that airfield.



MET'MAP, your aeronautical weather chart ! - Copyright ORBIFLY December 2007 - Disclaimer

ORBIFLY MET'MAP TEAM :

Programming & Development : Alexandra Zaïnal
Concept & Development : Baudouin d'Aumeries
Co-Development & Prog : Marc-Olivier Méhu
Technical & hardware support : Manuel Goepfert

Contact : metmap@orbifly.com




SOURCES & CREDITS :

   NOAA